createdAt,value
2018-12-26T00:01:34.229Z,38.19
2018-12-26T00:04:07.550Z,38.21
2018-12-26T00:06:41.148Z,37.82
2018-12-26T00:09:14.278Z,37.90
2018-12-26T00:11:47.467Z,38.27
2018-12-26T00:14:20.552Z,38.62
2018-12-26T00:16:53.963Z,38.37
2018-12-26T00:19:27.189Z,37.59
2018-12-26T00:22:00.300Z,37.95
2018-12-26T00:24:33.447Z,38.14
2018-12-26T00:27:06.529Z,37.05
2018-12-26T00:29:39.692Z,37.84
2018-12-26T00:32:13.057Z,36.72
2018-12-26T00:34:48.900Z,36.58
2018-12-26T00:37:22.042Z,36.42
2018-12-26T00:39:55.212Z,37.37
2018-12-26T00:42:28.240Z,37.10
2018-12-26T00:45:01.719Z,36.76
2018-12-26T00:47:34.950Z,36.61
2018-12-26T00:50:08.278Z,36.30
2018-12-26T00:52:41.580Z,36.55
2018-12-26T00:55:14.732Z,36.52
2018-12-26T00:57:47.855Z,36.75
2018-12-26T01:00:21.203Z,36.08
2018-12-26T01:02:55.551Z,35.69
2018-12-26T01:05:28.696Z,35.17
2018-12-26T01:08:01.938Z,35.33
2018-12-26T01:10:35.333Z,36.31
2018-12-26T01:13:08.487Z,35.72
2018-12-26T01:15:41.724Z,35.60
2018-12-26T01:18:14.784Z,36.70
2018-12-26T01:20:47.857Z,36.47
2018-12-26T01:23:20.726Z,36.08
2018-12-26T01:25:53.910Z,35.19
2018-12-26T01:28:26.923Z,36.21
2018-12-26T01:31:00.148Z,36.08
2018-12-26T01:33:33.175Z,35.84
2018-12-26T01:36:06.082Z,35.53
2018-12-26T01:38:38.740Z,36.15
2018-12-26T01:41:11.499Z,36.41
2018-12-26T01:43:44.767Z,35.14
2018-12-26T01:46:17.872Z,35.48
2018-12-26T01:48:51.244Z,34.35
2018-12-26T01:51:25.073Z,35.36
2018-12-26T01:53:57.997Z,34.51
2018-12-26T01:56:31.138Z,35.07
2018-12-26T01:59:04.647Z,34.91
2018-12-26T02:01:37.961Z,34.72
2018-12-26T02:04:10.972Z,34.50
2018-12-26T02:06:43.881Z,34.31
2018-12-26T02:09:17.293Z,33.95
2018-12-26T02:11:51.084Z,34.06
2018-12-26T02:14:24.151Z,33.86
2018-12-26T02:16:57.119Z,33.09
2018-12-26T02:19:30.819Z,33.46
2018-12-26T02:22:04.088Z,35.25
2018-12-26T02:24:37.719Z,34.21
2018-12-26T02:27:11.055Z,34.62
2018-12-26T02:29:44.260Z,34.62
2018-12-26T02:32:17.589Z,34.41
2018-12-26T02:34:50.563Z,34.72
2018-12-26T02:37:23.954Z,35.20
2018-12-26T02:39:57.344Z,34.38
2018-12-26T02:42:30.388Z,35.07
2018-12-26T02:45:03.517Z,35.35
2018-12-26T02:47:36.591Z,35.35
2018-12-26T02:50:10.822Z,35.08
2018-12-26T02:52:44.007Z,35.04
2018-12-26T02:55:17.315Z,34.48
2018-12-26T02:57:51.046Z,34.48
2018-12-26T03:00:24.244Z,33.75
2018-12-26T03:02:57.353Z,34.51
2018-12-26T03:05:31.157Z,33.49
2018-12-26T03:08:04.520Z,33.50
2018-12-26T03:10:37.565Z,33.09
2018-12-26T03:13:10.626Z,32.96
2018-12-26T03:15:43.688Z,32.96
2018-12-26T03:18:16.975Z,33.23
2018-12-26T03:20:50.168Z,31.50
2018-12-26T03:23:23.247Z,31.81
2018-12-26T03:25:56.303Z,31.81
2018-12-26T03:28:29.262Z,32.75
2018-12-26T03:31:02.433Z,32.59
2018-12-26T03:33:35.633Z,33.06
2018-12-26T03:36:09.171Z,33.06
2018-12-26T03:38:42.140Z,32.77
2018-12-26T03:41:17.178Z,33.69
2018-12-26T03:43:51.410Z,32.10
2018-12-26T03:46:24.599Z,32.67
2018-12-26T03:48:58.001Z,32.67
2018-12-26T03:51:31.319Z,33.72
2018-12-26T03:54:04.583Z,32.66
2018-12-26T03:56:38.281Z,32.95
2018-12-26T03:59:11.906Z,32.03
2018-12-26T04:01:45.075Z,32.27
2018-12-26T04:04:18.137Z,31.72
2018-12-26T04:06:51.349Z,31.72
2018-12-26T04:09:27.896Z,32.68
2018-12-26T04:11:59.206Z,32.68
2018-12-26T04:14:32.276Z,31.97
2018-12-26T04:17:05.409Z,31.97
2018-12-26T04:19:38.722Z,32.36
2018-12-26T04:22:11.855Z,30.84
2018-12-26T04:24:45.175Z,31.94
2018-12-26T04:27:18.196Z,32.53
2018-12-26T04:29:59.579Z,31.31
2018-12-26T04:32:32.804Z,31.43
2018-12-26T04:35:06.129Z,31.12
2018-12-26T04:37:39.220Z,31.53
2018-12-26T04:40:12.243Z,32.16
2018-12-26T04:42:45.061Z,31.60
2018-12-26T04:45:17.698Z,30.91
2018-12-26T04:47:50.362Z,32.91
2018-12-26T04:50:23.820Z,32.06
2018-12-26T04:52:56.965Z,30.97
2018-12-26T04:55:30.236Z,32.01
2018-12-26T04:58:03.642Z,31.86
2018-12-26T05:00:36.312Z,32.04
2018-12-26T05:03:15.883Z,32.32
2018-12-26T05:05:48.823Z,32.36
2018-12-26T05:08:21.866Z,31.54
2018-12-26T05:10:54.910Z,32.43
2018-12-26T05:13:27.875Z,32.34
2018-12-26T05:16:01.052Z,31.63
2018-12-26T05:18:34.328Z,32.89
2018-12-26T05:21:07.431Z,32.66
2018-12-26T05:23:40.482Z,33.19
2018-12-26T05:26:16.416Z,33.19
2018-12-26T05:28:49.430Z,32.45
2018-12-26T05:31:22.667Z,32.57
2018-12-26T05:33:55.913Z,33.37
2018-12-26T05:36:28.883Z,33.76
2018-12-26T05:39:01.881Z,33.76
2018-12-26T05:41:34.900Z,31.55
2018-12-26T05:44:08.915Z,31.55
2018-12-26T05:46:41.922Z,32.72
2018-12-26T05:49:15.018Z,32.72
2018-12-26T05:51:48.085Z,32.78
2018-12-26T05:54:21.183Z,32.78
2018-12-26T05:56:55.487Z,33.21
2018-12-26T05:59:29.017Z,31.99
2018-12-26T06:02:02.138Z,31.99
2018-12-26T06:04:35.653Z,32.20
2018-12-26T06:07:08.548Z,32.14
2018-12-26T06:09:42.225Z,32.14
2018-12-26T06:12:15.265Z,32.75
2018-12-26T06:14:48.434Z,33.63
2018-12-26T06:17:21.599Z,32.10
2018-12-26T06:19:54.603Z,32.10
2018-12-26T06:22:30.539Z,32.18
2018-12-26T06:25:29.067Z,32.58
2018-12-26T06:28:02.251Z,32.58
2018-12-26T06:30:35.790Z,33.13
2018-12-26T06:33:09.031Z,33.13
2018-12-26T06:35:42.087Z,33.32
2018-12-26T06:38:15.021Z,32.95
2018-12-26T06:40:48.190Z,32.95
2018-12-26T06:43:21.262Z,33.36
2018-12-26T06:45:54.283Z,33.36
2018-12-26T06:48:27.729Z,33.07
2018-12-26T06:51:01.049Z,32.41
2018-12-26T06:53:34.079Z,33.44
2018-12-26T06:56:07.506Z,33.44
2018-12-26T06:58:40.602Z,33.24
2018-12-26T07:01:13.730Z,33.24
2018-12-26T07:03:46.594Z,32.36
2018-12-26T07:06:20.012Z,33.25
2018-12-26T07:08:53.130Z,32.92
2018-12-26T07:11:26.770Z,32.92
2018-12-26T07:13:59.763Z,34.00
2018-12-26T07:16:32.686Z,34.00
2018-12-26T07:19:08.705Z,32.46
2018-12-26T07:21:42.044Z,32.06
2018-12-26T07:24:15.193Z,33.18
2018-12-26T07:26:48.018Z,33.43
2018-12-26T07:29:21.014Z,33.22
2018-12-26T07:31:53.990Z,33.63
2018-12-26T07:34:27.145Z,34.29
2018-12-26T07:37:00.377Z,33.09
2018-12-26T07:39:33.602Z,33.09
2018-12-26T07:42:06.683Z,32.69
2018-12-26T07:44:39.761Z,32.69
2018-12-26T07:47:12.855Z,33.04
2018-12-26T07:49:45.909Z,33.02
2018-12-26T07:52:18.984Z,33.72
2018-12-26T07:54:52.102Z,33.14
2018-12-26T07:57:25.190Z,33.14
2018-12-26T07:59:58.355Z,33.77
2018-12-26T08:02:31.507Z,33.86
2018-12-26T08:05:04.556Z,33.02
2018-12-26T08:07:37.931Z,34.22
2018-12-26T08:10:11.156Z,34.00
2018-12-26T08:12:44.293Z,34.57
2018-12-26T08:15:17.864Z,34.57
2018-12-26T08:17:50.903Z,34.48
2018-12-26T08:20:24.159Z,35.62
2018-12-26T08:22:57.088Z,35.62
2018-12-26T08:25:30.112Z,35.25
2018-12-26T08:28:03.124Z,35.25
2018-12-26T08:30:36.863Z,34.37
2018-12-26T08:33:10.058Z,34.37
2018-12-26T08:35:43.115Z,34.26
2018-12-26T08:38:16.212Z,34.86
2018-12-26T08:40:49.380Z,34.60
2018-12-26T08:43:22.418Z,34.60
2018-12-26T08:45:56.024Z,35.39
2018-12-26T08:48:28.958Z,34.38
2018-12-26T08:51:01.887Z,34.38
2018-12-26T08:53:34.906Z,34.34
2018-12-26T08:56:07.918Z,33.40
2018-12-26T08:58:40.961Z,34.88
2018-12-26T09:01:14.197Z,34.58
2018-12-26T09:03:47.181Z,34.58
2018-12-26T09:06:20.119Z,34.99
2018-12-26T09:08:53.751Z,35.01
2018-12-26T09:11:27.222Z,34.68
2018-12-26T09:14:00.386Z,34.52
2018-12-26T09:16:33.341Z,35.41
2018-12-26T09:19:06.375Z,35.40
2018-12-26T09:21:39.449Z,35.49
2018-12-26T09:24:12.526Z,34.96
2018-12-26T09:26:45.578Z,34.96
2018-12-26T09:29:18.593Z,35.48
2018-12-26T09:31:51.419Z,34.93
2018-12-26T09:34:25.681Z,35.07
2018-12-26T09:36:58.350Z,35.18
2018-12-26T09:39:33.742Z,35.36
2018-12-26T09:42:07.190Z,35.29
2018-12-26T09:44:40.375Z,35.48
2018-12-26T09:47:13.436Z,35.22
2018-12-26T09:49:46.578Z,35.05
2018-12-26T09:52:19.948Z,35.95
2018-12-26T09:54:53.257Z,35.57
2018-12-26T09:57:26.570Z,35.47
2018-12-26T09:59:59.585Z,36.15
2018-12-26T10:02:32.843Z,36.42
2018-12-26T10:05:06.504Z,35.62
2018-12-26T10:07:39.251Z,35.91
2018-12-26T10:10:12.717Z,35.77
2018-12-26T10:12:46.854Z,35.61
2018-12-26T10:15:19.642Z,35.27
2018-12-26T10:17:52.603Z,35.85
2018-12-26T10:20:25.630Z,35.89
2018-12-26T10:22:58.638Z,36.99
2018-12-26T10:25:31.804Z,34.87
2018-12-26T10:28:05.058Z,35.31
2018-12-26T10:30:37.998Z,34.24
2018-12-26T10:33:11.156Z,35.55
2018-12-26T10:35:44.350Z,34.96
2018-12-26T10:38:17.325Z,35.23
2018-12-26T10:40:50.298Z,34.19
2018-12-26T10:43:23.446Z,34.25
2018-12-26T10:45:56.553Z,35.05
2018-12-26T10:48:29.421Z,35.56
2018-12-26T10:51:02.404Z,35.26
2018-12-26T10:53:35.373Z,35.15
2018-12-26T10:56:08.346Z,35.17
2018-12-26T10:58:41.631Z,35.04
2018-12-26T11:01:14.624Z,35.60
2018-12-26T11:03:48.125Z,35.15
2018-12-26T11:06:21.212Z,35.15
2018-12-26T11:08:54.284Z,36.14
2018-12-26T11:11:27.542Z,36.14
2018-12-26T11:14:01.302Z,35.49
2018-12-26T11:16:34.899Z,35.49
2018-12-26T11:19:07.888Z,35.54
2018-12-26T11:21:42.120Z,36.00
2018-12-26T11:24:15.208Z,35.13
2018-12-26T11:26:48.366Z,35.20
2018-12-26T11:29:21.576Z,35.94
2018-12-26T11:31:55.072Z,34.96
2018-12-26T11:34:29.233Z,35.58
2018-12-26T11:37:02.526Z,35.58
2018-12-26T11:39:35.666Z,35.28
2018-12-26T11:42:08.748Z,35.28
2018-12-26T11:44:42.019Z,35.04
2018-12-26T11:47:15.120Z,36.18
2018-12-26T11:49:48.574Z,36.18
2018-12-26T11:52:21.736Z,36.56
2018-12-26T11:54:54.784Z,36.11
2018-12-26T11:57:28.106Z,36.40
2018-12-26T12:00:01.478Z,36.40
2018-12-26T12:02:34.551Z,36.44
2018-12-26T12:05:08.301Z,36.44
2018-12-26T12:07:42.603Z,35.87
2018-12-26T12:10:16.111Z,35.71
2018-12-26T12:12:49.272Z,36.74
2018-12-26T12:15:22.321Z,37.05
2018-12-26T12:18:15.820Z,37.25
2018-12-26T12:20:48.934Z,37.49
2018-12-26T12:23:22.245Z,36.81
2018-12-26T12:25:55.593Z,36.60
2018-12-26T12:28:31.604Z,36.60
2018-12-26T12:31:04.926Z,35.72
2018-12-26T12:33:38.057Z,36.88
2018-12-26T12:36:12.958Z,36.13
2018-12-26T12:38:45.441Z,35.70
2018-12-26T12:41:18.613Z,35.70
2018-12-26T12:43:51.785Z,35.61
2018-12-26T12:46:24.742Z,35.86
2018-12-26T12:48:57.790Z,35.86
2018-12-26T12:51:31.003Z,36.21
2018-12-26T12:54:04.043Z,36.02
2018-12-26T12:56:36.993Z,36.72
2018-12-26T12:59:10.155Z,36.47
2018-12-26T13:01:43.208Z,36.47
2018-12-26T13:04:16.251Z,36.73
2018-12-26T13:06:49.083Z,36.49
2018-12-26T13:09:21.901Z,35.66
2018-12-26T13:11:55.115Z,36.61
2018-12-26T13:14:28.845Z,36.80
2018-12-26T13:17:01.731Z,36.67
2018-12-26T13:19:34.901Z,36.61
2018-12-26T13:22:11.568Z,36.40
2018-12-26T13:24:44.756Z,35.87
2018-12-26T13:27:17.875Z,35.81
2018-12-26T13:29:53.848Z,36.60
2018-12-26T13:32:25.377Z,35.88
2018-12-26T13:34:58.511Z,36.43
2018-12-26T13:37:33.036Z,36.41
2018-12-26T13:40:06.275Z,36.32
2018-12-26T13:42:39.645Z,36.45
2018-12-26T13:45:12.652Z,36.90
2018-12-26T13:47:45.582Z,36.58
2018-12-26T13:50:18.776Z,37.96
2018-12-26T13:52:51.896Z,36.75
2018-12-26T13:55:24.995Z,37.16
2018-12-26T13:57:58.074Z,36.97
2018-12-26T14:00:31.087Z,37.62
2018-12-26T14:03:04.495Z,36.93
2018-12-26T14:05:37.895Z,36.62
2018-12-26T14:08:10.994Z,36.84
2018-12-26T14:10:44.061Z,37.31
2018-12-26T14:13:17.140Z,36.93
2018-12-26T14:15:50.248Z,37.38
2018-12-26T14:18:23.337Z,37.46
2018-12-26T14:20:56.216Z,36.84
2018-12-26T14:23:28.929Z,36.66
2018-12-26T14:26:02.112Z,37.45
2018-12-26T14:28:36.125Z,36.94
2018-12-26T14:31:09.298Z,37.55
2018-12-26T14:33:42.253Z,37.35
2018-12-26T14:36:15.269Z,38.01
2018-12-26T14:38:48.300Z,37.67
2018-12-26T14:41:21.395Z,37.82
2018-12-26T14:43:55.109Z,37.01
2018-12-26T14:46:28.180Z,37.20
2018-12-26T14:49:04.495Z,37.65
2018-12-26T14:51:37.841Z,38.45
2018-12-26T14:54:11.004Z,37.63
2018-12-26T14:56:44.097Z,38.32
2018-12-26T14:59:17.024Z,37.26
2018-12-26T15:01:50.269Z,37.35
2018-12-26T15:04:23.692Z,38.30
2018-12-26T15:06:57.247Z,37.41
2018-12-26T15:09:30.586Z,37.55
2018-12-26T15:12:03.964Z,37.95
2018-12-26T15:14:37.776Z,38.32
2018-12-26T15:17:11.032Z,37.64
2018-12-26T15:19:44.191Z,37.52
2018-12-26T15:22:17.261Z,38.05
2018-12-26T15:24:50.043Z,38.21
2018-12-26T15:27:22.908Z,38.90
2018-12-26T15:29:55.852Z,38.41
2018-12-26T15:32:29.101Z,39.19
2018-12-26T15:35:03.564Z,38.68
2018-12-26T15:37:36.529Z,38.84
2018-12-26T15:40:11.882Z,39.14
2018-12-26T15:42:45.735Z,39.00
2018-12-26T15:45:18.707Z,38.79
2018-12-26T15:47:51.888Z,39.04
2018-12-26T15:50:24.971Z,39.33
2018-12-26T15:52:58.134Z,39.34
2018-12-26T15:55:31.105Z,39.05
2018-12-26T15:58:07.813Z,38.84
2018-12-26T16:00:40.859Z,38.67
2018-12-26T16:03:13.942Z,39.38
2018-12-26T16:05:47.218Z,39.61
2018-12-26T16:08:20.397Z,39.12
2018-12-26T16:10:53.615Z,38.25
2018-12-26T16:13:26.730Z,39.80
2018-12-26T16:15:59.829Z,39.80
2018-12-26T16:18:32.938Z,39.07
2018-12-26T16:21:06.012Z,39.31
2018-12-26T16:23:39.289Z,39.22
2018-12-26T16:26:12.309Z,38.94
2018-12-26T16:28:45.591Z,38.77
2018-12-26T16:31:19.246Z,39.95
2018-12-26T16:33:52.441Z,39.37
2018-12-26T16:36:25.529Z,39.95
2018-12-26T16:38:58.713Z,39.83
2018-12-26T16:41:32.380Z,40.03
2018-12-26T16:44:05.925Z,39.77
2018-12-26T16:46:39.412Z,40.04
2018-12-26T16:49:12.750Z,40.46
2018-12-26T16:51:49.182Z,40.74
2018-12-26T16:54:22.878Z,39.55
2018-12-26T16:56:59.259Z,39.55
2018-12-26T16:59:32.548Z,39.94
2018-12-26T17:02:05.776Z,39.36
2018-12-26T17:04:39.047Z,40.09
2018-12-26T17:07:12.107Z,40.03
2018-12-26T17:09:45.529Z,39.74
2018-12-26T17:12:18.651Z,40.02
2018-12-26T17:14:54.975Z,40.02
2018-12-26T17:17:28.109Z,40.25
2018-12-26T17:20:01.226Z,40.86
2018-12-26T17:22:34.455Z,40.67
2018-12-26T17:25:07.602Z,41.42
2018-12-26T17:27:41.005Z,40.70
2018-12-26T17:30:14.723Z,40.87
2018-12-26T17:32:48.188Z,40.87
2018-12-26T17:35:21.214Z,39.92
2018-12-26T17:37:54.236Z,39.92
2018-12-26T17:40:27.383Z,39.88
2018-12-26T17:43:00.888Z,40.15
2018-12-26T17:45:34.085Z,40.37
2018-12-26T17:48:07.116Z,40.84
2018-12-26T17:50:50.759Z,41.14
2018-12-26T17:53:40.625Z,40.25
2018-12-26T17:56:16.386Z,40.72
2018-12-26T17:59:08.062Z,40.44
2018-12-26T18:01:55.584Z,40.64
2018-12-26T18:04:29.331Z,40.73
2018-12-26T18:07:02.471Z,40.73
2018-12-26T18:09:35.568Z,39.87
2018-12-26T18:12:12.094Z,40.10
2018-12-26T18:14:44.533Z,40.72
2018-12-26T18:17:17.633Z,40.40
2018-12-26T18:20:32.889Z,40.34
2018-12-26T18:23:06.100Z,39.92
2018-12-26T18:29:20.891Z,40.70
2018-12-26T18:39:17.104Z,40.62
2018-12-26T18:41:50.119Z,41.47
2018-12-26T18:44:23.634Z,40.43
2018-12-26T18:46:56.673Z,40.20
2018-12-26T18:49:30.109Z,41.10
2018-12-26T18:52:04.045Z,40.43
2018-12-26T18:54:38.185Z,40.69
2018-12-26T18:57:12.035Z,40.74
2018-12-26T18:59:49.758Z,40.29
2018-12-26T19:02:23.666Z,40.20
2018-12-26T19:04:56.912Z,40.95
2018-12-26T19:07:32.910Z,40.71
2018-12-26T19:10:06.889Z,40.71
2018-12-26T19:12:45.779Z,40.10
2018-12-26T19:15:34.215Z,41.12
2018-12-26T19:18:11.547Z,41.41
2018-12-26T19:20:51.511Z,41.02
2018-12-26T19:23:24.686Z,40.93
2018-12-26T19:25:58.052Z,41.33
2018-12-26T19:28:31.161Z,41.19
2018-12-26T19:31:04.128Z,41.19
2018-12-26T19:33:37.408Z,40.97
2018-12-26T19:36:10.548Z,40.54
2018-12-26T19:38:43.657Z,40.34
2018-12-26T19:41:17.439Z,41.38
2018-12-26T19:43:51.132Z,41.20
2018-12-26T19:46:24.246Z,42.25
2018-12-26T19:49:02.557Z,42.25
2018-12-26T19:54:30.352Z,42.41
2018-12-26T19:57:05.119Z,42.23
2018-12-26T19:59:38.113Z,42.35
2018-12-26T20:02:12.548Z,42.23
2018-12-26T20:04:45.877Z,42.75
2018-12-26T20:07:19.583Z,42.85
2018-12-26T20:09:53.632Z,42.70
2018-12-26T20:12:27.719Z,42.79
2018-12-26T20:15:05.591Z,43.50
2018-12-26T20:17:40.443Z,43.15
2018-12-26T20:20:14.510Z,42.61
2018-12-26T20:22:55.049Z,42.23
2018-12-26T20:25:32.097Z,42.37
2018-12-26T20:28:05.717Z,43.13
2018-12-26T20:30:39.466Z,42.83
2018-12-26T20:33:15.605Z,42.80
2018-12-26T20:35:49.544Z,43.03
2018-12-26T20:38:23.212Z,43.06
2018-12-26T20:40:57.044Z,43.06
2018-12-26T20:43:30.435Z,43.18
2018-12-26T20:48:54.879Z,43.18
2018-12-26T20:51:27.911Z,43.29
2018-12-26T20:54:01.185Z,43.40
2018-12-26T20:56:35.103Z,43.81
2018-12-26T20:59:08.477Z,44.10
2018-12-26T21:01:42.203Z,44.85
2018-12-26T21:04:16.607Z,43.97
2018-12-26T21:06:51.237Z,43.71
2018-12-26T21:09:26.098Z,44.23
2018-12-26T21:12:02.162Z,44.29
2018-12-26T21:14:35.167Z,44.08
2018-12-26T21:17:08.657Z,43.72
2018-12-26T21:19:42.388Z,43.95
2018-12-26T21:22:16.031Z,43.57
2018-12-26T21:24:49.623Z,43.57
2018-12-26T21:27:22.948Z,43.84
2018-12-26T21:29:55.968Z,43.86
2018-12-26T21:32:29.140Z,44.16
2018-12-26T21:35:04.792Z,44.36
2018-12-26T21:37:38.702Z,44.77
2018-12-26T21:40:12.783Z,44.25
2018-12-26T21:42:46.656Z,44.43
2018-12-26T21:45:19.877Z,44.39
2018-12-26T21:47:53.951Z,44.67
2018-12-26T21:50:34.668Z,44.42
2018-12-26T21:53:08.354Z,44.29
2018-12-26T21:55:44.752Z,44.90
2018-12-26T21:58:18.104Z,44.17
2018-12-26T22:00:53.113Z,44.90
2018-12-26T22:03:26.447Z,44.84
2018-12-26T22:06:00.247Z,44.38
2018-12-26T22:08:33.210Z,45.02
2018-12-26T22:11:07.018Z,44.90
2018-12-26T22:13:42.735Z,44.47
2018-12-26T22:16:16.750Z,45.04
2018-12-26T22:18:50.740Z,43.95
2018-12-26T22:21:25.559Z,44.94
2018-12-26T22:23:58.951Z,44.68
2018-12-26T22:26:32.016Z,44.31
2018-12-26T22:29:05.876Z,44.64
2018-12-26T22:31:40.642Z,44.97
2018-12-26T22:34:14.516Z,44.37
2018-12-26T22:36:48.486Z,44.73
2018-12-26T22:39:21.909Z,44.65
2018-12-26T22:41:55.084Z,45.29
2018-12-26T22:44:28.261Z,45.29
2018-12-26T22:47:01.397Z,45.62
2018-12-26T22:49:35.121Z,45.49
2018-12-26T22:52:08.072Z,45.33
2018-12-26T22:54:41.053Z,44.94
2018-12-26T22:57:15.092Z,45.56
2018-12-26T22:59:48.978Z,44.65
2018-12-26T23:02:22.874Z,45.03
2018-12-26T23:04:55.770Z,44.90
2018-12-26T23:07:28.911Z,44.92
2018-12-26T23:10:01.957Z,45.09
2018-12-26T23:12:36.696Z,45.11
2018-12-26T23:15:10.078Z,45.20
2018-12-26T23:17:44.006Z,45.33
2018-12-26T23:20:18.150Z,45.48
2018-12-26T23:22:52.197Z,45.38
2018-12-26T23:25:26.216Z,45.09
2018-12-26T23:28:00.165Z,45.25
2018-12-26T23:30:34.110Z,45.22
2018-12-26T23:33:10.252Z,45.73
2018-12-26T23:35:45.676Z,45.03
2018-12-26T23:38:20.350Z,45.31
2018-12-26T23:40:56.439Z,45.42
2018-12-26T23:43:30.335Z,45.00
2018-12-26T23:46:04.069Z,45.14
2018-12-26T23:48:37.985Z,45.11
2018-12-26T23:51:12.098Z,45.06
2018-12-26T23:53:46.384Z,45.37
2018-12-26T23:56:19.334Z,45.25
2018-12-26T23:58:53.355Z,44.42
